Time;durP1;ratioP1;P1;durP2;ratioP2;P2;SDS_P1;SDS_P2;PMS_P1;PMS_P2;Temp;Humidity;BMP_temperature;BMP_pressure;BME280_temperature;BME280_humidity;BME280_pressure;Samples;Min_cycle;Max_cycle;Signal;HPM_P1;HPM_P2
2023/05/12 00:04:26;;;;;;;8.98;4.35;;;;;;;;;;10286378;28;20047;-79
2023/05/12 00:09:27;;;;;;;8.88;4.22;;;;;;;;;;10280043;28;20157;-79
2023/05/12 00:14:28;;;;;;;7.15;4.43;;;;;;;;;;10264515;28;20517;-79
2023/05/12 00:19:29;;;;;;;5.88;3.95;;;;;;;;;;10267596;28;20211;-79
2023/05/12 00:24:30;;;;;;;7.38;4.40;;;;;;;;;;10285215;28;20503;-81
2023/05/12 00:29:32;;;;;;;10.15;5.13;;;;;;;;;;10284724;28;20031;-80
2023/05/12 00:34:33;;;;;;;9.10;5.03;;;;;;;;;;10278025;28;20031;-81
2023/05/12 00:39:35;;;;;;;9.27;5.13;;;;;;;;;;10285282;28;20750;-79
2023/05/12 00:44:36;;;;;;;7.17;4.83;;;;;;;;;;10283759;28;20443;-79
2023/05/12 00:49:41;;;;;;;7.90;4.50;;;;;;;;;;10274238;28;20050;-79
2023/05/12 00:54:43;;;;;;;10.03;5.23;;;;;;;;;;10276652;28;20183;-79
2023/05/12 00:59:44;;;;;;;10.23;4.73;;;;;;;;;;10283071;28;20502;-78
2023/05/12 01:04:45;;;;;;;10.47;5.40;;;;;;;;;;10281678;28;20030;-79
2023/05/12 01:09:46;;;;;;;12.83;4.70;;;;;;;;;;10282021;28;20502;-79
2023/05/12 01:14:47;;;;;;;7.47;4.37;;;;;;;;;;10282890;28;20050;-78
2023/05/12 01:19:49;;;;;;;9.23;4.70;;;;;;;;;;10282000;28;20050;-79
2023/05/12 01:24:53;;;;;;;11.57;5.43;;;;;;;;;;10282743;28;20089;-79
2023/05/12 01:29:57;;;;;;;7.33;4.80;;;;;;;;;;10273878;28;20089;-80
2023/05/12 01:34:58;;;;;;;13.00;5.13;;;;;;;;;;10282761;28;20111;-81
2023/05/12 01:40:00;;;;;;;9.07;5.40;;;;;;;;;;10261127;28;20043;-79
2023/05/12 01:45:00;;;;;;;11.63;4.67;;;;;;;;;;10282803;28;20043;-81
2023/05/12 01:50:02;;;;;;;10.37;4.83;;;;;;;;;;10279845;28;20559;-80
2023/05/12 01:55:03;;;;;;;13.50;5.40;;;;;;;;;;10283215;28;20459;-80
2023/05/12 02:00:04;;;;;;;9.33;5.23;;;;;;;;;;10281013;28;20121;-80
2023/05/12 02:05:07;;;;;;;11.30;5.20;;;;;;;;;;10269763;28;20035;-81
2023/05/12 02:10:08;;;;;;;10.63;4.90;;;;;;;;;;10281181;28;20039;-81
2023/05/12 02:15:09;;;;;;;9.77;5.13;;;;;;;;;;10280938;28;20038;-79
2023/05/12 02:20:11;;;;;;;9.03;5.13;;;;;;;;;;10264800;28;20426;-78
2023/05/12 02:25:12;;;;;;;15.17;5.47;;;;;;;;;;10282403;28;20031;-81
2023/05/12 02:30:14;;;;;;;10.03;4.77;;;;;;;;;;10267855;28;20149;-79
2023/05/12 02:35:15;;;;;;;9.60;5.10;;;;;;;;;;10273272;28;20038;-80
2023/05/12 02:40:16;;;;;;;9.03;4.90;;;;;;;;;;10278798;28;20049;-79
2023/05/12 02:45:17;;;;;;;10.27;5.33;;;;;;;;;;10279643;28;20045;-80
2023/05/12 02:50:19;;;;;;;9.33;4.50;;;;;;;;;;10279223;28;20041;-80
2023/05/12 02:55:20;;;;;;;8.33;5.53;;;;;;;;;;10281244;28;20054;-80
2023/05/12 03:00:26;;;;;;;9.97;5.17;;;;;;;;;;10276778;28;20134;-81
2023/05/12 03:05:27;;;;;;;8.63;4.63;;;;;;;;;;10272615;28;20035;-78
2023/05/12 03:10:28;;;;;;;12.37;4.83;;;;;;;;;;10280133;28;20027;-78
2023/05/12 03:15:30;;;;;;;10.57;4.77;;;;;;;;;;10280188;28;20062;-78
2023/05/12 03:20:31;;;;;;;11.17;4.83;;;;;;;;;;10280560;28;20035;-80
2023/05/12 03:25:33;;;;;;;11.73;5.80;;;;;;;;;;10263572;28;20398;-78
2023/05/12 03:30:35;;;;;;;10.63;4.67;;;;;;;;;;10283608;28;20035;-78
2023/05/12 03:35:36;;;;;;;9.40;5.07;;;;;;;;;;10281246;28;20039;-78
2023/05/12 03:40:37;;;;;;;8.03;4.60;;;;;;;;;;10288004;28;20031;-80
2023/05/12 03:45:38;;;;;;;9.43;5.00;;;;;;;;;;10285918;28;20026;-81
2023/05/12 03:50:39;;;;;;;9.73;4.30;;;;;;;;;;10285010;28;20066;-81
2023/05/12 03:55:40;;;;;;;11.13;5.07;;;;;;;;;;10284673;28;20033;-80
2023/05/12 04:00:42;;;;;;;11.47;4.73;;;;;;;;;;10291739;28;20061;-82
2023/05/12 04:05:43;;;;;;;8.30;4.33;;;;;;;;;;10285667;28;20379;-80
2023/05/12 04:10:44;;;;;;;8.07;4.70;;;;;;;;;;10284820;28;20081;-79
2023/05/12 04:15:45;;;;;;;6.77;4.37;;;;;;;;;;10284595;28;20101;-80
2023/05/12 04:20:46;;;;;;;7.07;4.20;;;;;;;;;;10285200;28;20085;-80
2023/05/12 04:25:47;;;;;;;7.70;4.57;;;;;;;;;;10285294;28;20397;-79
2023/05/12 04:30:48;;;;;;;7.30;4.57;;;;;;;;;;10289334;28;20034;-82
2023/05/12 04:35:49;;;;;;;7.73;4.40;;;;;;;;;;10281985;28;20046;-79
2023/05/12 04:40:50;;;;;;;6.20;4.30;;;;;;;;;;10282975;28;20085;-79
2023/05/12 04:45:53;;;;;;;7.10;4.27;;;;;;;;;;10290980;28;20109;-79
2023/05/12 04:50:54;;;;;;;7.75;4.47;;;;;;;;;;10289087;28;20038;-81
2023/05/12 04:55:55;;;;;;;9.68;5.20;;;;;;;;;;10279857;28;20051;-79
2023/05/12 05:00:56;;;;;;;8.23;4.50;;;;;;;;;;10283634;28;20145;-80
2023/05/12 05:05:57;;;;;;;7.38;4.50;;;;;;;;;;10295835;28;20037;-78
2023/05/12 05:10:58;;;;;;;7.97;4.50;;;;;;;;;;10301235;28;20030;-82
2023/05/12 05:16:00;;;;;;;10.90;4.43;;;;;;;;;;10285713;28;20081;-80
2023/05/12 05:21:01;;;;;;;10.15;4.18;;;;;;;;;;10287974;28;20022;-79
2023/05/12 05:26:02;;;;;;;6.85;4.00;;;;;;;;;;10296050;28;20031;-81
2023/05/12 05:31:03;;;;;;;8.20;4.03;;;;;;;;;;10283658;28;20027;-79
2023/05/12 05:36:05;;;;;;;6.93;4.55;;;;;;;;;;10272900;28;20447;-79
2023/05/12 05:41:06;;;;;;;7.00;4.25;;;;;;;;;;10284280;28;20034;-80
2023/05/12 05:46:07;;;;;;;7.50;4.07;;;;;;;;;;10283346;28;20395;-78
2023/05/12 05:51:10;;;;;;;8.55;4.75;;;;;;;;;;10282636;28;20058;-81
2023/05/12 05:56:11;;;;;;;9.15;5.20;;;;;;;;;;10270340;28;20058;-79
2023/05/12 06:01:12;;;;;;;10.38;4.68;;;;;;;;;;10283538;28;20051;-79
2023/05/12 06:06:13;;;;;;;9.25;4.38;;;;;;;;;;10283016;28;20471;-78
2023/05/12 06:11:15;;;;;;;9.55;4.60;;;;;;;;;;10282742;28;20094;-78
2023/05/12 06:16:16;;;;;;;13.68;6.95;;;;;;;;;;10283653;28;20914;-78
2023/05/12 06:21:17;;;;;;;6.93;4.35;;;;;;;;;;10282343;28;20039;-81
2023/05/12 06:26:18;;;;;;;10.40;4.40;;;;;;;;;;10273844;28;20047;-79
2023/05/12 06:31:19;;;;;;;9.88;4.88;;;;;;;;;;10277021;28;20093;-78
2023/05/12 06:36:20;;;;;;;11.45;5.07;;;;;;;;;;10281678;28;20126;-79
2023/05/12 06:41:23;;;;;;;10.05;5.72;;;;;;;;;;10281948;28;20539;-81
2023/05/12 06:46:24;;;;;;;11.52;4.90;;;;;;;;;;10281219;28;20095;-79
2023/05/12 06:51:25;;;;;;;11.13;4.40;;;;;;;;;;10281223;28;20394;-78
2023/05/12 06:56:28;;;;;;;11.80;6.15;;;;;;;;;;10281022;28;20046;-78
2023/05/12 07:01:29;;;;;;;8.05;4.65;;;;;;;;;;10280883;28;20057;-78
2023/05/12 07:06:31;;;;;;;9.27;4.90;;;;;;;;;;10281872;28;20043;-80
2023/05/12 07:11:32;;;;;;;7.05;4.35;;;;;;;;;;10280851;28;20111;-78
2023/05/12 07:16:33;;;;;;;6.88;3.92;;;;;;;;;;10280980;28;20172;-79
2023/05/12 07:21:34;;;;;;;6.90;4.30;;;;;;;;;;10280875;28;20085;-82
2023/05/12 07:26:36;;;;;;;6.88;3.70;;;;;;;;;;10280861;28;20046;-79
2023/05/12 07:31:37;;;;;;;9.90;3.63;;;;;;;;;;10280758;28;20100;-81
2023/05/12 07:36:38;;;;;;;6.68;3.33;;;;;;;;;;10280229;28;20162;-80
2023/05/12 07:41:40;;;;;;;9.52;3.30;;;;;;;;;;10279999;28;20034;-78
2023/05/12 07:46:41;;;;;;;6.93;3.45;;;;;;;;;;10280348;28;20086;-81
2023/05/12 07:51:42;;;;;;;7.47;3.35;;;;;;;;;;10280014;28;20201;-80
2023/05/12 07:56:43;;;;;;;4.65;2.80;;;;;;;;;;10280889;28;20035;-81
2023/05/12 08:01:45;;;;;;;5.68;3.20;;;;;;;;;;10276886;28;20557;-79
2023/05/12 08:06:45;;;;;;;4.70;2.90;;;;;;;;;;10276866;28;20085;-79
2023/05/12 08:11:48;;;;;;;6.38;3.00;;;;;;;;;;10268751;28;20094;-79
2023/05/12 08:16:49;;;;;;;5.03;2.88;;;;;;;;;;10275123;28;20097;-79
2023/05/12 08:21:50;;;;;;;5.78;3.45;;;;;;;;;;10286369;28;20114;-79
2023/05/12 08:26:51;;;;;;;8.05;3.35;;;;;;;;;;10269106;28;20073;-79
2023/05/12 08:31:52;;;;;;;4.90;2.67;;;;;;;;;;10301315;28;20477;-79
2023/05/12 08:36:54;;;;;;;4.93;2.97;;;;;;;;;;10287411;28;20097;-79
2023/05/12 08:42:03;;;;;;;4.05;2.70;;;;;;;;;;10294017;28;20058;-79
2023/05/12 08:47:08;;;;;;;3.88;2.53;;;;;;;;;;10283332;28;20038;-79
2023/05/12 08:52:09;;;;;;;6.87;2.90;;;;;;;;;;10286524;28;20037;-80
2023/05/12 08:57:10;;;;;;;5.65;2.70;;;;;;;;;;10285267;28;20035;-80
2023/05/12 09:02:12;;;;;;;3.63;2.45;;;;;;;;;;10283634;28;20051;-80
2023/05/12 09:07:14;;;;;;;3.08;2.50;;;;;;;;;;10284038;28;20057;-79
2023/05/12 09:12:18;;;;;;;8.70;2.83;;;;;;;;;;10284504;28;20041;-80
2023/05/12 09:17:19;;;;;;;4.90;2.83;;;;;;;;;;10273276;28;20054;-79
2023/05/12 09:22:27;;;;;;;6.55;3.08;;;;;;;;;;10284517;28;20058;-80
2023/05/12 09:27:29;;;;;;;3.85;2.33;;;;;;;;;;10283130;28;20047;-79
2023/05/12 09:32:31;;;;;;;5.85;2.55;;;;;;;;;;10283253;28;20027;-80
2023/05/12 09:37:34;;;;;;;7.90;2.67;;;;;;;;;;10258591;28;20082;-80
2023/05/12 09:42:35;;;;;;;7.13;2.72;;;;;;;;;;10282726;28;20774;-79
2023/05/12 09:47:37;;;;;;;4.18;2.50;;;;;;;;;;10282201;28;20037;-78
2023/05/12 09:52:38;;;;;;;4.53;2.22;;;;;;;;;;10282344;28;20042;-79
2023/05/12 09:57:40;;;;;;;6.30;2.35;;;;;;;;;;10282307;28;20706;-79
2023/05/12 10:02:42;;;;;;;4.30;2.13;;;;;;;;;;10280062;28;20055;-79
2023/05/12 10:07:47;;;;;;;4.70;2.17;;;;;;;;;;10280046;28;20043;-80
2023/05/12 10:12:48;;;;;;;5.25;2.53;;;;;;;;;;10281607;28;20379;-79
2023/05/12 10:17:50;;;;;;;5.03;2.10;;;;;;;;;;10282064;28;20039;-78
2023/05/12 10:22:51;;;;;;;5.15;2.40;;;;;;;;;;10280638;28;20031;-79
2023/05/12 10:27:53;;;;;;;5.75;2.35;;;;;;;;;;10281124;28;20545;-78
2023/05/12 10:32:55;;;;;;;8.07;2.60;;;;;;;;;;10280514;28;20030;-79
2023/05/12 10:38:00;;;;;;;6.78;2.10;;;;;;;;;;10280928;28;20035;-79
2023/05/12 10:43:01;;;;;;;7.03;2.05;;;;;;;;;;10281044;28;20030;-79
2023/05/12 10:48:06;;;;;;;4.95;1.70;;;;;;;;;;10278689;28;20046;-80
2023/05/12 10:53:10;;;;;;;3.97;2.53;;;;;;;;;;10280506;28;20070;-79
2023/05/12 10:58:12;;;;;;;8.07;2.30;;;;;;;;;;10280859;28;20101;-79
2023/05/12 11:03:14;;;;;;;2.53;1.95;;;;;;;;;;10278345;28;20727;-80
2023/05/12 11:08:15;;;;;;;5.22;3.00;;;;;;;;;;10280190;28;20049;-79
2023/05/12 11:13:17;;;;;;;4.45;2.92;;;;;;;;;;10278727;28;20023;-79
2023/05/12 11:18:21;;;;;;;5.40;2.30;;;;;;;;;;10279812;28;20081;-78
2023/05/12 11:23:24;;;;;;;6.15;2.35;;;;;;;;;;10280040;28;20102;-79
2023/05/12 11:28:25;;;;;;;6.07;2.10;;;;;;;;;;10280774;28;20042;-80
2023/05/12 11:33:26;;;;;;;6.80;2.42;;;;;;;;;;10279269;28;20129;-79
2023/05/12 11:38:27;;;;;;;6.93;2.20;;;;;;;;;;10266351;28;20105;-79
2023/05/12 11:43:28;;;;;;;2.83;2.20;;;;;;;;;;10279332;28;20066;-80
2023/05/12 11:48:33;;;;;;;4.35;2.38;;;;;;;;;;10280097;28;20078;-78
2023/05/12 11:53:39;;;;;;;5.07;2.25;;;;;;;;;;10288149;28;20019;-78
2023/05/12 11:58:40;;;;;;;9.35;2.45;;;;;;;;;;10287730;28;20058;-79
2023/05/12 12:03:48;;;;;;;7.07;2.17;;;;;;;;;;10285338;28;20026;-80
2023/05/12 12:08:50;;;;;;;3.67;2.60;;;;;;;;;;10261963;28;20031;-78
2023/05/12 12:13:55;;;;;;;3.55;2.13;;;;;;;;;;10282864;28;20030;-79
2023/05/12 12:18:56;;;;;;;9.10;2.67;;;;;;;;;;10267512;28;20027;-79
2023/05/12 12:23:57;;;;;;;4.10;2.10;;;;;;;;;;10272594;28;20042;-80
2023/05/12 12:28:59;;;;;;;3.97;2.28;;;;;;;;;;10271517;28;20027;-80
2023/05/12 12:34:01;;;;;;;5.45;2.10;;;;;;;;;;10266891;28;20034;-79
2023/05/12 12:39:02;;;;;;;4.95;2.30;;;;;;;;;;10272534;28;20419;-79
2023/05/12 12:44:03;;;;;;;3.35;1.75;;;;;;;;;;10282038;28;20035;-79
2023/05/12 12:49:04;;;;;;;3.92;2.00;;;;;;;;;;10282644;28;20023;-82
2023/05/12 12:54:05;;;;;;;8.75;2.15;;;;;;;;;;10261540;28;20188;-80
2023/05/12 12:59:06;;;;;;;5.38;2.15;;;;;;;;;;10282260;28;20054;-80
2023/05/12 13:04:07;;;;;;;2.50;1.90;;;;;;;;;;10280020;28;20121;-82
2023/05/12 13:09:09;;;;;;;5.68;2.45;;;;;;;;;;10276030;28;20035;-82
2023/05/12 13:14:10;;;;;;;4.65;2.42;;;;;;;;;;10284475;28;20030;-79
2023/05/12 13:19:11;;;;;;;10.25;2.00;;;;;;;;;;10282630;28;20774;-80
2023/05/12 13:24:12;;;;;;;4.60;2.47;;;;;;;;;;10279044;28;20031;-80
2023/05/12 13:29:13;;;;;;;2.63;2.10;;;;;;;;;;10278934;28;20633;-78
2023/05/12 13:34:14;;;;;;;7.50;3.55;;;;;;;;;;10281795;28;20593;-80
2023/05/12 13:39:16;;;;;;;3.30;2.42;;;;;;;;;;10271604;28;20047;-79
2023/05/12 13:44:18;;;;;;;7.35;2.35;;;;;;;;;;10282035;28;20778;-79
2023/05/12 13:49:19;;;;;;;8.23;2.63;;;;;;;;;;10261717;28;20376;-80
2023/05/12 13:54:21;;;;;;;6.18;2.35;;;;;;;;;;10282959;28;20034;-79
2023/05/12 13:59:22;;;;;;;5.22;2.53;;;;;;;;;;10281544;28;20043;-79
2023/05/12 14:04:28;;;;;;;4.68;2.33;;;;;;;;;;10282854;28;20034;-82
2023/05/12 14:09:59;;;;;;;4.70;2.53;;;;;;;;;;10261680;28;20039;-81
2023/05/12 14:15:23;;;;;;;7.13;2.38;;;;;;;;;;10153519;29;20098;-86
2023/05/12 14:20:24;;;;;;;9.25;5.80;;;;;;;;;;10200316;29;20103;-88
2023/05/12 14:31:08;;;;;;;9.30;3.45;;;;;;;;;;10192435;28;20099;-88
2023/05/12 14:36:09;;;;;;;15.75;7.50;;;;;;;;;;10185220;29;20036;-87
2023/05/12 14:41:10;;;;;;;11.27;6.18;;;;;;;;;;10192773;29;20044;-87
2023/05/12 14:46:11;;;;;;;6.07;2.67;;;;;;;;;;10250437;28;20047;-86
2023/05/12 14:56:54;;;;;;;10.75;3.25;;;;;;;;;;11868748;23;20068;-87
2023/05/12 15:02:28;;;;;;;16.67;8.77;;;;;;;;;;10277386;28;20035;-87
2023/05/12 15:07:29;;;;;;;68.30;42.63;;;;;;;;;;10259469;28;20034;-87
2023/05/12 15:12:44;;;;;;;8.18;3.83;;;;;;;;;;10271825;28;20039;-89
2023/05/12 15:17:45;;;;;;;5.03;2.20;;;;;;;;;;10265442;28;20047;-87
2023/05/12 15:22:47;;;;;;;6.63;3.10;;;;;;;;;;10268808;28;20034;-85
2023/05/12 15:27:48;;;;;;;17.50;6.60;;;;;;;;;;10280950;28;20034;-85
2023/05/12 15:32:49;;;;;;;6.30;3.20;;;;;;;;;;10285566;28;20421;-86
2023/05/12 15:37:50;;;;;;;5.55;2.80;;;;;;;;;;10228456;28;20055;-84
2023/05/12 15:42:51;;;;;;;3.97;2.30;;;;;;;;;;10250232;28;20031;-84
2023/05/12 15:47:52;;;;;;;6.88;2.60;;;;;;;;;;10227061;28;20050;-84
2023/05/12 15:52:53;;;;;;;6.05;2.53;;;;;;;;;;10240731;28;20097;-85
2023/05/12 15:57:54;;;;;;;3.40;2.28;;;;;;;;;;10238914;28;20051;-84
2023/05/12 16:02:55;;;;;;;6.07;3.30;;;;;;;;;;10234051;28;20031;-84
2023/05/12 16:07:56;;;;;;;8.65;3.25;;;;;;;;;;10244741;28;20403;-84
2023/05/12 16:12:57;;;;;;;6.35;3.42;;;;;;;;;;10234931;28;20027;-85
2023/05/12 16:17:58;;;;;;;6.78;2.90;;;;;;;;;;10240447;28;20039;-84
2023/05/12 16:22:59;;;;;;;5.38;2.80;;;;;;;;;;10238254;28;20031;-82
2023/05/12 16:28:00;;;;;;;4.18;2.47;;;;;;;;;;10225164;28;20035;-84
2023/05/12 16:33:05;;;;;;;9.00;2.63;;;;;;;;;;10239937;28;20023;-84
2023/05/12 16:38:10;;;;;;;5.57;3.25;;;;;;;;;;10223991;29;20039;-86
2023/05/12 16:48:50;;;;;;;4.97;2.70;;;;;;;;;;10227852;28;20263;-84
2023/05/12 16:54:27;;;;;;;9.00;2.65;;;;;;;;;;10218388;29;20027;-85
2023/05/12 16:59:41;;;;;;;;;;;;;;;;;;;;;
2023/05/12 17:04:46;;;;;;;4.30;2.58;;;;;;;;;;10158696;29;20043;-87
2023/05/12 17:09:47;;;;;;;5.05;3.00;;;;;;;;;;10243344;28;20027;-85
2023/05/12 17:14:48;;;;;;;3.55;2.67;;;;;;;;;;10213761;29;20113;-85
2023/05/12 17:19:49;;;;;;;8.63;3.13;;;;;;;;;;10212573;29;20050;-86
2023/05/12 17:24:50;;;;;;;6.20;2.45;;;;;;;;;;10223417;28;20041;-84
2023/05/12 17:29:51;;;;;;;7.35;3.33;;;;;;;;;;10230507;28;20031;-86
2023/05/12 17:34:53;;;;;;;6.40;2.78;;;;;;;;;;10220145;28;20027;-86
2023/05/12 17:39:54;;;;;;;7.55;3.42;;;;;;;;;;10202368;29;20048;-84
2023/05/12 17:44:55;;;;;;;7.72;2.80;;;;;;;;;;10215089;28;20034;-85
2023/05/12 17:49:56;;;;;;;8.07;3.80;;;;;;;;;;10209628;28;20078;-85
2023/05/12 17:54:57;;;;;;;5.78;3.15;;;;;;;;;;10222881;29;20031;-86
2023/05/12 17:59:58;;;;;;;5.43;3.30;;;;;;;;;;10219433;28;20062;-85
2023/05/12 18:04:59;;;;;;;6.93;3.28;;;;;;;;;;10220294;29;20169;-88
2023/05/12 18:10:00;;;;;;;8.13;3.60;;;;;;;;;;10219276;28;20055;-84
2023/05/12 18:15:02;;;;;;;7.35;3.58;;;;;;;;;;10234811;28;20038;-84
2023/05/12 18:20:03;;;;;;;6.65;3.13;;;;;;;;;;10233207;28;20126;-85
2023/05/12 18:25:04;;;;;;;8.25;3.20;;;;;;;;;;10214255;29;20042;-90
2023/05/12 18:30:06;;;;;;;5.53;3.63;;;;;;;;;;10222690;28;20812;-85
2023/05/12 18:35:10;;;;;;;10.70;3.50;;;;;;;;;;10239458;28;20070;-85
2023/05/12 18:40:11;;;;;;;7.15;3.20;;;;;;;;;;10245335;28;20154;-84
2023/05/12 18:45:22;;;;;;;6.15;3.42;;;;;;;;;;10235168;28;20118;-85
2023/05/12 18:51:00;;;;;;;5.35;3.60;;;;;;;;;;10211737;29;20023;-86
2023/05/12 19:01:49;;;;;;;4.90;3.08;;;;;;;;;;10193703;28;20169;-87
2023/05/12 19:18:10;;;;;;;5.95;3.58;;;;;;;;;;10214431;29;20035;-86
2023/05/12 19:29:22;;;;;;;6.57;3.60;;;;;;;;;;10227810;28;20031;-85
2023/05/12 19:34:24;;;;;;;6.15;3.58;;;;;;;;;;10227296;28;20030;-85
2023/05/12 19:39:25;;;;;;;9.40;3.45;;;;;;;;;;10201146;29;20518;-87
2023/05/12 19:44:26;;;;;;;5.20;3.72;;;;;;;;;;10215720;29;20035;-85
2023/05/12 19:49:27;;;;;;;5.63;3.42;;;;;;;;;;10200422;29;20115;-84
2023/05/12 19:54:28;;;;;;;5.88;3.50;;;;;;;;;;10227387;29;20031;-84
2023/05/12 19:59:29;;;;;;;8.48;4.05;;;;;;;;;;10219901;28;20422;-88
2023/05/12 20:04:30;;;;;;;7.43;3.85;;;;;;;;;;10221411;29;20035;-85
2023/05/12 20:09:32;;;;;;;7.30;3.03;;;;;;;;;;10222210;28;20493;-83
2023/05/12 20:14:37;;;;;;;6.53;3.67;;;;;;;;;;10228347;28;20039;-85
2023/05/12 20:19:38;;;;;;;6.53;3.30;;;;;;;;;;10221034;28;20054;-83
2023/05/12 20:24:39;;;;;;;10.70;4.18;;;;;;;;;;10245976;28;20391;-85
2023/05/12 20:29:40;;;;;;;4.57;3.28;;;;;;;;;;10229323;28;20383;-85
2023/05/12 20:34:41;;;;;;;5.15;3.33;;;;;;;;;;10242064;28;20031;-85
2023/05/12 20:39:42;;;;;;;5.70;3.78;;;;;;;;;;10234615;29;20043;-84
2023/05/12 20:44:43;;;;;;;9.00;4.10;;;;;;;;;;10212606;28;20027;-81
2023/05/12 20:49:44;;;;;;;7.93;3.63;;;;;;;;;;10218335;28;20122;-87
2023/05/12 20:54:45;;;;;;;8.13;3.53;;;;;;;;;;10217225;29;20031;-84
2023/05/12 20:59:47;;;;;;;8.00;4.55;;;;;;;;;;10215539;29;20066;-83
2023/05/12 21:04:48;;;;;;;7.30;3.65;;;;;;;;;;10214945;29;20030;-87
2023/05/12 21:09:49;;;;;;;7.50;4.00;;;;;;;;;;10231468;28;20493;-86
2023/05/12 21:14:50;;;;;;;7.35;3.72;;;;;;;;;;10244635;28;20035;-84
2023/05/12 21:19:51;;;;;;;9.15;3.85;;;;;;;;;;10239659;28;20042;-86
2023/05/12 21:24:52;;;;;;;7.22;3.92;;;;;;;;;;10226360;28;20023;-86
2023/05/12 21:29:53;;;;;;;6.93;3.88;;;;;;;;;;10238743;28;20043;-85
2023/05/12 21:34:54;;;;;;;6.78;3.70;;;;;;;;;;10240818;28;20079;-85
2023/05/12 21:39:55;;;;;;;8.63;3.75;;;;;;;;;;10242703;28;20047;-86
2023/05/12 21:44:56;;;;;;;10.18;3.58;;;;;;;;;;10244729;28;20031;-85
2023/05/12 21:49:58;;;;;;;9.05;4.03;;;;;;;;;;10242797;28;20031;-87
2023/05/12 21:55:01;;;;;;;9.98;3.95;;;;;;;;;;10243414;28;20032;-85
2023/05/12 22:00:03;;;;;;;8.65;4.30;;;;;;;;;;10243191;28;20391;-85
2023/05/12 22:05:04;;;;;;;7.47;4.18;;;;;;;;;;10222764;28;20059;-87
2023/05/12 22:10:06;;;;;;;6.97;4.15;;;;;;;;;;10243778;29;20042;-84
2023/05/12 22:15:07;;;;;;;10.52;3.97;;;;;;;;;;10224061;28;20039;-83
2023/05/12 22:20:08;;;;;;;7.88;4.22;;;;;;;;;;10218889;29;20051;-85
2023/05/12 22:25:09;;;;;;;7.90;4.25;;;;;;;;;;10242701;28;20038;-86
2023/05/12 22:30:11;;;;;;;11.80;4.07;;;;;;;;;;10224626;28;20035;-85
2023/05/12 22:35:12;;;;;;;7.68;4.00;;;;;;;;;;10237350;28;20031;-85
2023/05/12 22:40:13;;;;;;;10.90;4.25;;;;;;;;;;10242186;28;20043;-85
2023/05/12 22:45:14;;;;;;;8.88;3.33;;;;;;;;;;10236569;28;20074;-87
2023/05/12 22:50:15;;;;;;;7.25;4.22;;;;;;;;;;10240293;28;20063;-85
2023/05/12 22:55:16;;;;;;;9.00;4.93;;;;;;;;;;10242279;28;20872;-85
2023/05/12 23:00:17;;;;;;;10.73;4.50;;;;;;;;;;10223359;28;20109;-86
2023/05/12 23:05:19;;;;;;;11.00;4.28;;;;;;;;;;10223299;29;20051;-84
2023/05/12 23:10:20;;;;;;;9.45;4.72;;;;;;;;;;10240387;28;20118;-86
2023/05/12 23:15:21;;;;;;;11.18;5.15;;;;;;;;;;10222910;29;20035;-85
2023/05/12 23:20:22;;;;;;;8.82;4.85;;;;;;;;;;10216799;28;20043;-85
2023/05/12 23:25:23;;;;;;;8.80;4.53;;;;;;;;;;10240924;29;20027;-84
2023/05/12 23:30:24;;;;;;;8.27;4.20;;;;;;;;;;10240406;28;20042;-84
2023/05/12 23:35:25;;;;;;;8.73;5.18;;;;;;;;;;10228251;28;20490;-87
2023/05/12 23:40:26;;;;;;;8.15;5.22;;;;;;;;;;10239905;28;20039;-85
2023/05/12 23:45:27;;;;;;;8.83;4.67;;;;;;;;;;10239418;28;20476;-85
2023/05/12 23:50:28;;;;;;;8.38;5.05;;;;;;;;;;10228760;29;20087;-87
2023/05/12 23:55:29;;;;;;;9.70;5.40;;;;;;;;;;10231209;28;20050;-86
